Terminal Aerodrome Forecast
Issued by NWS

Home | Current Version | Previous Version | Text Only | Print | Product List | Glossary On
Versions: 1 2 3 4 5 6 7 8 9 10 11 12 13 14 15 16 17 18 19 20 21
000
FTUS46 KSTO 182322
TAFRBL
TAF
KRBL 182322Z 1900/1924 16025G35KT 4SM -RA BR SCT010 OVC020
      TEMPO 1900/1903 2SM RA BR
     FM190400 16015KT 4SM -SHRA OVC010
     FM192000 16013KT P6SM VCSH BKN025=

USA.gov is the U.S. government's official web portal to all federal, state and local government web resources and services.